sensor_id;sensor_type;location;lat;lon;timestamp;pressure;altitude;pressure_sealevel;temperature;humidity
12781;BME280;6454;43.304;24.344;2023-04-24T00:01:08;100000.16;;;8.37;77.49
12781;BME280;6454;43.304;24.344;2023-04-24T00:03:36;100001.50;;;8.24;78.01
12781;BME280;6454;43.304;24.344;2023-04-24T00:06:05;99944.88;;;7.89;78.73
12781;BME280;6454;43.304;24.344;2023-04-24T00:08:33;100003.69;;;8.27;78.98
12781;BME280;6454;43.304;24.344;2023-04-24T00:11:00;100007.72;;;8.25;79.34
12781;BME280;6454;43.304;24.344;2023-04-24T00:13:27;100003.41;;;8.19;79.71
12781;BME280;6454;43.304;24.344;2023-04-24T00:15:54;100005.03;;;8.25;79.75
12781;BME280;6454;43.304;24.344;2023-04-24T00:18:21;100010.16;;;8.36;79.57
12781;BME280;6454;43.304;24.344;2023-04-24T00:20:48;100016.91;;;8.39;79.85
12781;BME280;6454;43.304;24.344;2023-04-24T00:23:16;100001.50;;;8.34;79.87
12781;BME280;6454;43.304;24.344;2023-04-24T00:25:43;100010.97;;;8.32;79.96
12781;BME280;6454;43.304;24.344;2023-04-24T00:28:10;100009.63;;;8.34;80.66
12781;BME280;6454;43.304;24.344;2023-04-24T00:30:37;100010.66;;;8.43;80.88
12781;BME280;6454;43.304;24.344;2023-04-24T00:33:03;100005.81;;;8.40;80.84
12781;BME280;6454;43.304;24.344;2023-04-24T00:35:30;100004.44;;;8.48;81.19
12781;BME280;6454;43.304;24.344;2023-04-24T00:37:57;100003.34;;;8.49;81.21
12781;BME280;6454;43.304;24.344;2023-04-24T00:40:25;99994.16;;;8.45;81.57
12781;BME280;6454;43.304;24.344;2023-04-24T00:42:53;99988.50;;;8.47;81.09
12781;BME280;6454;43.304;24.344;2023-04-24T00:45:20;99987.44;;;8.43;81.57
12781;BME280;6454;43.304;24.344;2023-04-24T00:47:47;99983.41;;;8.40;81.82
12781;BME280;6454;43.304;24.344;2023-04-24T00:50:15;99984.19;;;8.40;81.79
12781;BME280;6454;43.304;24.344;2023-04-24T00:52:41;99985.47;;;8.53;82.14
12781;BME280;6454;43.304;24.344;2023-04-24T00:55:09;99969.78;;;8.55;82.03
12781;BME280;6454;43.304;24.344;2023-04-24T00:57:37;99976.81;;;8.56;82.09
12781;BME280;6454;43.304;24.344;2023-04-24T01:00:05;99975.50;;;8.49;83.01
12781;BME280;6454;43.304;24.344;2023-04-24T01:02:37;99973.09;;;8.47;83.80
12781;BME280;6454;43.304;24.344;2023-04-24T01:05:06;99975.25;;;8.45;83.85
12781;BME280;6454;43.304;24.344;2023-04-24T01:07:33;99968.75;;;8.51;84.41
12781;BME280;6454;43.304;24.344;2023-04-24T01:10:00;99976.31;;;8.49;84.04
12781;BME280;6454;43.304;24.344;2023-04-24T01:12:28;99974.09;;;8.61;84.22
12781;BME280;6454;43.304;24.344;2023-04-24T01:14:56;99915.88;;;8.30;83.93
12781;BME280;6454;43.304;24.344;2023-04-24T01:17:23;99964.88;;;8.67;83.70
12781;BME280;6454;43.304;24.344;2023-04-24T01:19:49;99949.72;;;8.71;84.31
12781;BME280;6454;43.304;24.344;2023-04-24T01:22:20;99936.19;;;8.71;84.53
12781;BME280;6454;43.304;24.344;2023-04-24T01:24:47;99925.09;;;8.73;84.88
12781;BME280;6454;43.304;24.344;2023-04-24T01:27:14;99913.50;;;8.67;84.77
12781;BME280;6454;43.304;24.344;2023-04-24T01:29:41;99932.66;;;8.76;84.43
12781;BME280;6454;43.304;24.344;2023-04-24T01:32:08;99928.03;;;8.81;84.71
12781;BME280;6454;43.304;24.344;2023-04-24T01:34:35;99925.00;;;8.88;85.05
12781;BME280;6454;43.304;24.344;2023-04-24T01:37:02;99929.03;;;8.90;84.69
12781;BME280;6454;43.304;24.344;2023-04-24T01:39:31;99926.28;;;8.95;84.43
12781;BME280;6454;43.304;24.344;2023-04-24T01:41:59;99936.00;;;9.01;84.68
12781;BME280;6454;43.304;24.344;2023-04-24T01:44:27;99934.34;;;9.05;84.24
12781;BME280;6454;43.304;24.344;2023-04-24T01:46:54;99934.38;;;9.00;84.24
12781;BME280;6454;43.304;24.344;2023-04-24T01:49:21;99933.56;;;9.00;83.79
12781;BME280;6454;43.304;24.344;2023-04-24T01:51:48;99933.41;;;8.86;84.38
12781;BME280;6454;43.304;24.344;2023-04-24T01:54:15;99930.13;;;8.89;84.92
12781;BME280;6454;43.304;24.344;2023-04-24T01:56:43;99938.28;;;8.84;85.10
12781;BME280;6454;43.304;24.344;2023-04-24T01:59:11;99949.13;;;8.79;85.56
12781;BME280;6454;43.304;24.344;2023-04-24T02:01:38;99943.66;;;8.89;85.71
12781;BME280;6454;43.304;24.344;2023-04-24T02:04:06;99954.66;;;9.03;85.15
12781;BME280;6454;43.304;24.344;2023-04-24T02:06:33;99948.94;;;9.10;85.04
12781;BME280;6454;43.304;24.344;2023-04-24T02:09:00;99954.59;;;9.13;85.24
12781;BME280;6454;43.304;24.344;2023-04-24T02:11:27;99941.84;;;9.19;84.99
12781;BME280;6454;43.304;24.344;2023-04-24T02:13:55;99943.66;;;9.28;84.55
12781;BME280;6454;43.304;24.344;2023-04-24T02:16:22;99936.34;;;9.29;84.12
12781;BME280;6454;43.304;24.344;2023-04-24T02:18:49;99938.44;;;9.37;83.45
12781;BME280;6454;43.304;24.344;2023-04-24T02:21:15;99916.41;;;9.48;82.92
12781;BME280;6454;43.304;24.344;2023-04-24T02:23:42;99882.16;;;9.34;83.06
12781;BME280;6454;43.304;24.344;2023-04-24T02:26:09;99913.13;;;9.51;82.93
12781;BME280;6454;43.304;24.344;2023-04-24T02:28:36;99909.16;;;9.44;83.50
12781;BME280;6454;43.304;24.344;2023-04-24T02:31:04;99921.81;;;9.48;83.48
12781;BME280;6454;43.304;24.344;2023-04-24T02:33:31;99912.38;;;9.46;83.69
12781;BME280;6454;43.304;24.344;2023-04-24T02:35:58;99909.53;;;9.61;83.52
12781;BME280;6454;43.304;24.344;2023-04-24T02:38:27;99915.97;;;9.65;83.93
12781;BME280;6454;43.304;24.344;2023-04-24T02:40:54;99910.34;;;9.61;84.11
12781;BME280;6454;43.304;24.344;2023-04-24T02:43:20;99921.97;;;9.62;84.28
12781;BME280;6454;43.304;24.344;2023-04-24T02:45:47;99921.97;;;9.62;84.05
12781;BME280;6454;43.304;24.344;2023-04-24T02:48:15;99921.69;;;9.63;84.03
12781;BME280;6454;43.304;24.344;2023-04-24T02:50:42;99922.97;;;9.71;83.73
12781;BME280;6454;43.304;24.344;2023-04-24T02:53:09;99922.91;;;9.76;83.94
12781;BME280;6454;43.304;24.344;2023-04-24T02:55:35;99919.53;;;9.60;84.58
12781;BME280;6454;43.304;24.344;2023-04-24T02:58:02;99911.63;;;9.69;84.40
12781;BME280;6454;43.304;24.344;2023-04-24T03:00:29;99901.75;;;9.78;84.54
12781;BME280;6454;43.304;24.344;2023-04-24T03:02:56;99907.88;;;9.89;83.93
12781;BME280;6454;43.304;24.344;2023-04-24T03:05:24;99915.72;;;9.90;83.75
12781;BME280;6454;43.304;24.344;2023-04-24T03:07:52;99916.94;;;9.79;83.99
12781;BME280;6454;43.304;24.344;2023-04-24T03:10:19;99940.25;;;9.75;84.41
12781;BME280;6454;43.304;24.344;2023-04-24T03:12:47;99946.56;;;9.65;85.02
12781;BME280;6454;43.304;24.344;2023-04-24T03:15:14;99943.34;;;9.63;85.39
12781;BME280;6454;43.304;24.344;2023-04-24T03:17:41;99949.13;;;9.81;85.46
12781;BME280;6454;43.304;24.344;2023-04-24T03:20:08;99941.44;;;9.93;85.06
12781;BME280;6454;43.304;24.344;2023-04-24T03:22:37;99947.84;;;10.02;84.83
12781;BME280;6454;43.304;24.344;2023-04-24T03:25:04;99945.94;;;10.02;85.25
12781;BME280;6454;43.304;24.344;2023-04-24T03:27:33;99954.78;;;10.13;84.81
12781;BME280;6454;43.304;24.344;2023-04-24T03:30:00;99953.03;;;10.27;84.52
12781;BME280;6454;43.304;24.344;2023-04-24T03:32:27;99948.25;;;10.38;83.61
12781;BME280;6454;43.304;24.344;2023-04-24T03:34:54;99937.59;;;10.46;83.56
12781;BME280;6454;43.304;24.344;2023-04-24T03:37:21;99945.72;;;10.46;84.10
12781;BME280;6454;43.304;24.344;2023-04-24T03:39:49;99921.28;;;10.27;83.67
12781;BME280;6454;43.304;24.344;2023-04-24T03:42:15;99948.78;;;10.40;84.03
12781;BME280;6454;43.304;24.344;2023-04-24T03:44:42;99949.59;;;10.40;85.93
12781;BME280;6454;43.304;24.344;2023-04-24T03:47:09;99958.88;;;10.58;83.59
12781;BME280;6454;43.304;24.344;2023-04-24T03:49:36;99961.25;;;10.64;85.38
12781;BME280;6454;43.304;24.344;2023-04-24T03:52:02;99952.06;;;10.60;84.78
12781;BME280;6454;43.304;24.344;2023-04-24T03:54:29;99966.25;;;10.52;85.03
12781;BME280;6454;43.304;24.344;2023-04-24T03:56:57;99962.69;;;10.57;84.73
12781;BME280;6454;43.304;24.344;2023-04-24T03:59:24;99961.88;;;10.56;83.93
12781;BME280;6454;43.304;24.344;2023-04-24T04:01:51;99981.00;;;10.65;83.63
12781;BME280;6454;43.304;24.344;2023-04-24T04:04:18;100002.66;;;10.70;83.61
12781;BME280;6454;43.304;24.344;2023-04-24T04:06:44;99983.72;;;10.65;83.32
12781;BME280;6454;43.304;24.344;2023-04-24T04:09:12;99999.47;;;10.63;84.11
12781;BME280;6454;43.304;24.344;2023-04-24T04:11:39;99999.16;;;10.69;84.68
12781;BME280;6454;43.304;24.344;2023-04-24T04:14:07;99997.47;;;10.73;84.63
12781;BME280;6454;43.304;24.344;2023-04-24T04:16:34;99997.09;;;10.80;84.71
12781;BME280;6454;43.304;24.344;2023-04-24T04:19:01;100000.84;;;10.84;84.69
12781;BME280;6454;43.304;24.344;2023-04-24T04:21:28;100002.47;;;10.85;85.07
12781;BME280;6454;43.304;24.344;2023-04-24T04:23:56;100001.50;;;10.94;86.58
12781;BME280;6454;43.304;24.344;2023-04-24T04:26:23;100006.22;;;11.08;88.20
12781;BME280;6454;43.304;24.344;2023-04-24T04:28:51;100004.91;;;11.05;89.12
12781;BME280;6454;43.304;24.344;2023-04-24T04:31:19;99997.34;;;11.02;89.63
12781;BME280;6454;43.304;24.344;2023-04-24T04:33:46;100014.16;;;11.04;89.96
12781;BME280;6454;43.304;24.344;2023-04-24T04:36:13;100017.97;;;11.03;90.38
12781;BME280;6454;43.304;24.344;2023-04-24T04:38:40;100010.75;;;11.12;90.74
12781;BME280;6454;43.304;24.344;2023-04-24T04:41:08;100011.75;;;11.21;90.70
12781;BME280;6454;43.304;24.344;2023-04-24T04:43:35;100001.88;;;11.25;90.82
12781;BME280;6454;43.304;24.344;2023-04-24T04:46:02;99999.09;;;11.30;92.29
12781;BME280;6454;43.304;24.344;2023-04-24T04:48:31;99996.63;;;11.34;92.89
12781;BME280;6454;43.304;24.344;2023-04-24T04:50:57;99987.66;;;11.33;93.39
12781;BME280;6454;43.304;24.344;2023-04-24T04:53:24;99990.28;;;11.38;94.05
12781;BME280;6454;43.304;24.344;2023-04-24T04:55:52;99977.88;;;11.32;94.87
12781;BME280;6454;43.304;24.344;2023-04-24T04:58:18;99982.06;;;11.25;96.39
12781;BME280;6454;43.304;24.344;2023-04-24T05:00:45;99990.66;;;11.13;98.75
12781;BME280;6454;43.304;24.344;2023-04-24T05:03:12;99992.94;;;11.06;100.00
12781;BME280;6454;43.304;24.344;2023-04-24T05:05:40;99974.53;;;11.22;100.00
12781;BME280;6454;43.304;24.344;2023-04-24T05:08:07;99966.66;;;11.20;100.00
12781;BME280;6454;43.304;24.344;2023-04-24T05:10:34;99948.25;;;11.17;100.00
12781;BME280;6454;43.304;24.344;2023-04-24T05:13:02;99938.72;;;11.20;100.00
12781;BME280;6454;43.304;24.344;2023-04-24T05:15:29;99936.53;;;11.22;100.00
12781;BME280;6454;43.304;24.344;2023-04-24T05:17:56;99925.69;;;11.35;100.00
12781;BME280;6454;43.304;24.344;2023-04-24T05:20:23;99917.69;;;11.44;100.00
12781;BME280;6454;43.304;24.344;2023-04-24T05:22:52;99923.97;;;11.58;100.00
12781;BME280;6454;43.304;24.344;2023-04-24T05:25:19;99935.13;;;11.56;100.00
12781;BME280;6454;43.304;24.344;2023-04-24T05:27:45;99933.50;;;11.55;100.00
12781;BME280;6454;43.304;24.344;2023-04-24T05:30:13;99925.06;;;11.57;100.00
12781;BME280;6454;43.304;24.344;2023-04-24T05:32:39;99936.72;;;11.57;100.00
12781;BME280;6454;43.304;24.344;2023-04-24T05:35:07;99939.66;;;11.61;100.00
12781;BME280;6454;43.304;24.344;2023-04-24T05:37:34;99945.84;;;11.67;100.00
12781;BME280;6454;43.304;24.344;2023-04-24T05:40:02;99921.91;;;11.50;100.00
12781;BME280;6454;43.304;24.344;2023-04-24T05:42:31;99884.47;;;11.33;100.00
12781;BME280;6454;43.304;24.344;2023-04-24T05:44:57;99947.78;;;11.80;100.00
12781;BME280;6454;43.304;24.344;2023-04-24T05:47:24;99946.59;;;11.86;100.00
12781;BME280;6454;43.304;24.344;2023-04-24T05:49:52;99942.84;;;11.82;100.00
12781;BME280;6454;43.304;24.344;2023-04-24T05:52:18;99935.50;;;11.82;100.00
12781;BME280;6454;43.304;24.344;2023-04-24T05:54:45;99923.81;;;11.82;100.00
12781;BME280;6454;43.304;24.344;2023-04-24T05:57:14;99921.72;;;11.79;100.00
12781;BME280;6454;43.304;24.344;2023-04-24T05:59:41;99914.69;;;11.91;100.00
12781;BME280;6454;43.304;24.344;2023-04-24T06:02:07;99910.47;;;11.99;100.00
12781;BME280;6454;43.304;24.344;2023-04-24T06:04:34;99921.16;;;12.09;100.00
12781;BME280;6454;43.304;24.344;2023-04-24T06:07:01;99918.63;;;12.12;100.00
12781;BME280;6454;43.304;24.344;2023-04-24T06:09:28;99919.41;;;12.26;100.00
12781;BME280;6454;43.304;24.344;2023-04-24T06:11:55;99919.22;;;12.37;100.00
12781;BME280;6454;43.304;24.344;2023-04-24T06:14:24;99916.22;;;12.38;100.00
12781;BME280;6454;43.304;24.344;2023-04-24T06:16:50;99920.03;;;12.51;100.00
12781;BME280;6454;43.304;24.344;2023-04-24T06:19:17;99928.03;;;12.69;100.00
12781;BME280;6454;43.304;24.344;2023-04-24T06:21:44;99926.88;;;12.84;100.00
12781;BME280;6454;43.304;24.344;2023-04-24T06:24:14;99927.06;;;13.01;100.00
12781;BME280;6454;43.304;24.344;2023-04-24T06:26:41;99933.88;;;13.26;100.00
12781;BME280;6454;43.304;24.344;2023-04-24T06:29:08;99927.78;;;13.51;100.00
12781;BME280;6454;43.304;24.344;2023-04-24T06:31:36;99920.81;;;13.67;97.33
12781;BME280;6454;43.304;24.344;2023-04-24T06:34:03;99908.38;;;13.75;95.11
12781;BME280;6454;43.304;24.344;2023-04-24T06:36:30;99908.31;;;13.97;95.98
12781;BME280;6454;43.304;24.344;2023-04-24T06:38:57;99909.19;;;14.14;93.87
12781;BME280;6454;43.304;24.344;2023-04-24T06:41:24;99919.56;;;14.35;91.72
12781;BME280;6454;43.304;24.344;2023-04-24T06:43:51;99929.50;;;14.39;87.45
12781;BME280;6454;43.304;24.344;2023-04-24T06:46:18;99915.19;;;14.34;87.98
12781;BME280;6454;43.304;24.344;2023-04-24T06:48:49;99920.22;;;14.49;87.21
12781;BME280;6454;43.304;24.344;2023-04-24T06:51:15;99917.34;;;14.54;88.20
12781;BME280;6454;43.304;24.344;2023-04-24T06:53:43;99925.09;;;14.60;87.82
12781;BME280;6454;43.304;24.344;2023-04-24T06:56:10;99919.16;;;14.75;86.74
12781;BME280;6454;43.304;24.344;2023-04-24T06:58:36;99931.53;;;14.90;85.97
12781;BME280;6454;43.304;24.344;2023-04-24T07:01:03;99930.09;;;15.01;85.23
12781;BME280;6454;43.304;24.344;2023-04-24T07:03:30;99932.66;;;15.06;83.71
12781;BME280;6454;43.304;24.344;2023-04-24T07:05:58;99937.16;;;15.11;84.36
12781;BME280;6454;43.304;24.344;2023-04-24T07:08:25;99936.69;;;15.34;83.32
12781;BME280;6454;43.304;24.344;2023-04-24T07:10:52;99934.28;;;15.50;81.07
12781;BME280;6454;43.304;24.344;2023-04-24T07:13:19;99935.41;;;15.58;80.54
12781;BME280;6454;43.304;24.344;2023-04-24T07:15:46;99933.78;;;15.57;78.99
12781;BME280;6454;43.304;24.344;2023-04-24T07:18:14;99934.25;;;15.67;77.86
12781;BME280;6454;43.304;24.344;2023-04-24T07:20:41;99938.09;;;15.66;77.53
12781;BME280;6454;43.304;24.344;2023-04-24T07:23:09;99937.47;;;15.69;77.08
12781;BME280;6454;43.304;24.344;2023-04-24T07:25:36;99943.72;;;15.78;75.29
12781;BME280;6454;43.304;24.344;2023-04-24T07:28:03;99938.75;;;15.80;76.60
12781;BME280;6454;43.304;24.344;2023-04-24T07:30:30;99936.25;;;16.04;78.07
12781;BME280;6454;43.304;24.344;2023-04-24T07:32:58;99921.97;;;16.28;76.94
12781;BME280;6454;43.304;24.344;2023-04-24T07:35:25;99929.88;;;16.50;75.00
12781;BME280;6454;43.304;24.344;2023-04-24T07:37:52;99932.78;;;16.62;74.92
12781;BME280;6454;43.304;24.344;2023-04-24T07:40:21;99913.66;;;16.54;70.33
12781;BME280;6454;43.304;24.344;2023-04-24T07:42:48;99935.31;;;16.67;71.62
12781;BME280;6454;43.304;24.344;2023-04-24T07:45:15;99939.47;;;16.73;69.75
12781;BME280;6454;43.304;24.344;2023-04-24T07:47:42;99945.56;;;16.79;70.37
12781;BME280;6454;43.304;24.344;2023-04-24T07:50:11;99941.16;;;16.87;70.29
12781;BME280;6454;43.304;24.344;2023-04-24T07:52:38;99952.19;;;16.99;69.79
12781;BME280;6454;43.304;24.344;2023-04-24T07:55:05;99952.25;;;17.11;70.18
12781;BME280;6454;43.304;24.344;2023-04-24T07:57:33;99943.56;;;17.09;71.91
12781;BME280;6454;43.304;24.344;2023-04-24T08:00:03;99950.47;;;17.15;72.13
12781;BME280;6454;43.304;24.344;2023-04-24T08:02:31;99952.31;;;17.23;72.40
12781;BME280;6454;43.304;24.344;2023-04-24T08:04:58;99944.28;;;17.18;70.27
12781;BME280;6454;43.304;24.344;2023-04-24T08:07:24;99945.50;;;17.29;70.76
12781;BME280;6454;43.304;24.344;2023-04-24T08:09:51;99944.16;;;17.35;68.99
12781;BME280;6454;43.304;24.344;2023-04-24T08:12:18;99952.06;;;17.57;66.01
12781;BME280;6454;43.304;24.344;2023-04-24T08:14:46;99955.25;;;17.59;65.20
12781;BME280;6454;43.304;24.344;2023-04-24T08:17:13;99952.38;;;17.56;65.30
12781;BME280;6454;43.304;24.344;2023-04-24T08:19:40;99950.28;;;17.53;65.95
12781;BME280;6454;43.304;24.344;2023-04-24T08:22:12;99945.56;;;17.62;66.95
12781;BME280;6454;43.304;24.344;2023-04-24T08:24:39;99947.06;;;17.71;67.62
12781;BME280;6454;43.304;24.344;2023-04-24T08:27:06;99942.63;;;17.79;70.03
12781;BME280;6454;43.304;24.344;2023-04-24T08:29:33;99946.41;;;17.86;69.93
12781;BME280;6454;43.304;24.344;2023-04-24T08:32:01;99939.09;;;17.90;70.21
12781;BME280;6454;43.304;24.344;2023-04-24T08:34:28;99941.63;;;17.95;68.39
12781;BME280;6454;43.304;24.344;2023-04-24T08:36:54;99942.22;;;18.01;68.42
12781;BME280;6454;43.304;24.344;2023-04-24T08:39:21;99944.50;;;18.11;66.96
12781;BME280;6454;43.304;24.344;2023-04-24T08:41:48;99933.53;;;18.11;65.60
12781;BME280;6454;43.304;24.344;2023-04-24T08:44:17;99934.34;;;18.12;66.68
12781;BME280;6454;43.304;24.344;2023-04-24T08:46:47;99933.88;;;18.10;66.98
12781;BME280;6454;43.304;24.344;2023-04-24T08:49:16;99936.16;;;18.08;66.63
12781;BME280;6454;43.304;24.344;2023-04-24T08:51:44;99912.31;;;17.87;66.51
12781;BME280;6454;43.304;24.344;2023-04-24T08:54:12;99934.13;;;18.17;66.13
12781;BME280;6454;43.304;24.344;2023-04-24T08:56:40;99935.03;;;18.21;66.73
12781;BME280;6454;43.304;24.344;2023-04-24T08:59:10;99928.50;;;18.25;67.24
12781;BME280;6454;43.304;24.344;2023-04-24T09:01:38;99924.97;;;18.25;66.58
12781;BME280;6454;43.304;24.344;2023-04-24T09:04:08;99918.91;;;18.19;65.48
12781;BME280;6454;43.304;24.344;2023-04-24T09:06:37;99916.75;;;18.25;65.34
12781;BME280;6454;43.304;24.344;2023-04-24T09:09:04;99919.13;;;18.26;66.41
12781;BME280;6454;43.304;24.344;2023-04-24T09:11:31;99912.97;;;18.29;66.06
12781;BME280;6454;43.304;24.344;2023-04-24T09:13:59;99894.28;;;18.23;65.96
12781;BME280;6454;43.304;24.344;2023-04-24T09:16:27;99911.81;;;18.30;65.89
12781;BME280;6454;43.304;24.344;2023-04-24T09:18:55;99898.19;;;18.34;65.65
12781;BME280;6454;43.304;24.344;2023-04-24T09:21:22;99904.94;;;18.36;65.55
12781;BME280;6454;43.304;24.344;2023-04-24T09:23:59;99900.28;;;18.49;66.01
12781;BME280;6454;43.304;24.344;2023-04-24T09:26:29;99896.03;;;18.63;65.03
12781;BME280;6454;43.304;24.344;2023-04-24T09:28:57;99894.88;;;18.77;65.72
12781;BME280;6454;43.304;24.344;2023-04-24T09:31:26;99885.81;;;18.76;64.94
12781;BME280;6454;43.304;24.344;2023-04-24T09:33:55;99872.06;;;18.76;64.89
12781;BME280;6454;43.304;24.344;2023-04-24T09:36:27;99876.16;;;18.82;62.92
12781;BME280;6454;43.304;24.344;2023-04-24T09:38:59;99886.19;;;19.02;62.86
12781;BME280;6454;43.304;24.344;2023-04-24T09:41:26;99878.38;;;19.32;61.46
12781;BME280;6454;43.304;24.344;2023-04-24T09:43:54;99879.72;;;19.50;60.65
12781;BME280;6454;43.304;24.344;2023-04-24T09:46:29;99880.53;;;19.82;56.94
12781;BME280;6454;43.304;24.344;2023-04-24T09:48:56;99881.28;;;20.10;57.26
12781;BME280;6454;43.304;24.344;2023-04-24T09:51:33;99864.56;;;20.34;55.36
12781;BME280;6454;43.304;24.344;2023-04-24T09:54:02;99868.63;;;20.56;56.67
12781;BME280;6454;43.304;24.344;2023-04-24T09:56:32;99863.56;;;20.77;56.42
12781;BME280;6454;43.304;24.344;2023-04-24T09:59:04;99867.31;;;21.04;55.02
12781;BME280;6454;43.304;24.344;2023-04-24T10:01:31;99865.66;;;21.18;54.65
12781;BME280;6454;43.304;24.344;2023-04-24T10:03:58;99851.63;;;21.27;51.80
12781;BME280;6454;43.304;24.344;2023-04-24T10:06:31;99839.31;;;21.21;53.12
12781;BME280;6454;43.304;24.344;2023-04-24T10:08:58;99849.88;;;21.38;51.98
12781;BME280;6454;43.304;24.344;2023-04-24T10:11:27;99843.47;;;21.34;50.47
12781;BME280;6454;43.304;24.344;2023-04-24T10:13:54;99839.28;;;21.40;51.70
12781;BME280;6454;43.304;24.344;2023-04-24T10:16:23;99833.03;;;21.43;52.02
12781;BME280;6454;43.304;24.344;2023-04-24T10:18:49;99826.63;;;21.39;50.35
12781;BME280;6454;43.304;24.344;2023-04-24T10:21:17;99827.75;;;21.57;49.62
12781;BME280;6454;43.304;24.344;2023-04-24T10:23:44;99827.56;;;21.69;49.03
12781;BME280;6454;43.304;24.344;2023-04-24T10:26:12;99808.34;;;21.76;49.52
12781;BME280;6454;43.304;24.344;2023-04-24T10:28:45;99818.50;;;21.92;50.63
12781;BME280;6454;43.304;24.344;2023-04-24T10:31:12;99810.41;;;22.02;49.54
12781;BME280;6454;43.304;24.344;2023-04-24T10:33:40;99811.25;;;22.06;49.10
12781;BME280;6454;43.304;24.344;2023-04-24T10:36:08;99803.22;;;22.24;48.19
12781;BME280;6454;43.304;24.344;2023-04-24T10:38:37;99790.50;;;22.16;46.12
12781;BME280;6454;43.304;24.344;2023-04-24T10:41:09;99808.56;;;22.36;46.86
12781;BME280;6454;43.304;24.344;2023-04-24T10:43:41;99803.03;;;22.36;47.58
12781;BME280;6454;43.304;24.344;2023-04-24T10:46:10;99810.66;;;22.20;47.43
12781;BME280;6454;43.304;24.344;2023-04-24T10:48:42;99784.66;;;22.21;46.65
12781;BME280;6454;43.304;24.344;2023-04-24T10:51:12;99808.38;;;22.25;45.42
12781;BME280;6454;43.304;24.344;2023-04-24T10:53:39;99809.47;;;22.47;46.47
12781;BME280;6454;43.304;24.344;2023-04-24T10:56:07;99807.47;;;22.70;45.39
12781;BME280;6454;43.304;24.344;2023-04-24T10:58:37;99801.44;;;22.94;45.20
12781;BME280;6454;43.304;24.344;2023-04-24T11:01:06;99804.19;;;22.91;44.60
12781;BME280;6454;43.304;24.344;2023-04-24T11:03:35;99796.78;;;23.02;43.60
12781;BME280;6454;43.304;24.344;2023-04-24T11:06:04;99796.78;;;23.02;42.73
12781;BME280;6454;43.304;24.344;2023-04-24T11:08:36;99793.94;;;22.95;43.32
12781;BME280;6454;43.304;24.344;2023-04-24T11:11:08;99783.94;;;22.83;42.84
12781;BME280;6454;43.304;24.344;2023-04-24T11:14:07;99780.69;;;22.78;44.64
12781;BME280;6454;43.304;24.344;2023-04-24T11:16:44;99772.47;;;22.85;43.65
12781;BME280;6454;43.304;24.344;2023-04-24T11:19:22;99777.97;;;22.81;42.08
12781;BME280;6454;43.304;24.344;2023-04-24T11:21:55;99757.72;;;22.74;43.30
12781;BME280;6454;43.304;24.344;2023-04-24T11:24:36;99768.91;;;22.84;40.97
12781;BME280;6454;43.304;24.344;2023-04-24T11:27:12;99775.09;;;22.74;41.28
12781;BME280;6454;43.304;24.344;2023-04-24T11:29:45;99771.59;;;22.48;41.95
12781;BME280;6454;43.304;24.344;2023-04-24T11:32:34;99769.44;;;22.08;41.17
12781;BME280;6454;43.304;24.344;2023-04-24T11:35:05;99766.25;;;22.06;43.76
12781;BME280;6454;43.304;24.344;2023-04-24T11:37:37;99763.81;;;22.01;44.37
12781;BME280;6454;43.304;24.344;2023-04-24T11:40:05;99766.59;;;22.01;43.86
12781;BME280;6454;43.304;24.344;2023-04-24T11:42:36;99763.91;;;22.08;44.01
12781;BME280;6454;43.304;24.344;2023-04-24T11:45:08;99763.69;;;22.20;42.32
12781;BME280;6454;43.304;24.344;2023-04-24T11:47:35;99749.78;;;22.13;44.84
12781;BME280;6454;43.304;24.344;2023-04-24T11:50:05;99754.66;;;21.97;43.12
12781;BME280;6454;43.304;24.344;2023-04-24T11:52:33;99759.56;;;22.07;43.93
12781;BME280;6454;43.304;24.344;2023-04-24T11:55:03;99748.19;;;22.12;42.20
12781;BME280;6454;43.304;24.344;2023-04-24T11:57:30;99745.06;;;22.13;43.13
12781;BME280;6454;43.304;24.344;2023-04-24T11:59:59;99740.56;;;22.31;44.01
12781;BME280;6454;43.304;24.344;2023-04-24T12:02:27;99737.78;;;22.61;44.04
12781;BME280;6454;43.304;24.344;2023-04-24T12:04:54;99729.84;;;22.86;43.82
12781;BME280;6454;43.304;24.344;2023-04-24T12:07:23;99717.84;;;23.12;42.62
12781;BME280;6454;43.304;24.344;2023-04-24T12:09:56;99724.63;;;23.21;42.53
12781;BME280;6454;43.304;24.344;2023-04-24T12:12:27;99718.41;;;23.31;42.28
12781;BME280;6454;43.304;24.344;2023-04-24T12:14:56;99715.56;;;23.21;42.54
12781;BME280;6454;43.304;24.344;2023-04-24T12:17:24;99713.38;;;22.63;43.67
12781;BME280;6454;43.304;24.344;2023-04-24T12:19:52;99715.97;;;22.82;43.94
12781;BME280;6454;43.304;24.344;2023-04-24T12:22:19;99705.09;;;23.03;42.69
12781;BME280;6454;43.304;24.344;2023-04-24T12:25:04;99682.59;;;23.05;42.20
12781;BME280;6454;43.304;24.344;2023-04-24T12:27:31;99697.78;;;23.22;40.86
12781;BME280;6454;43.304;24.344;2023-04-24T12:30:00;99690.31;;;23.26;41.47
12781;BME280;6454;43.304;24.344;2023-04-24T12:32:28;99681.56;;;23.24;40.24
12781;BME280;6454;43.304;24.344;2023-04-24T12:34:55;99677.22;;;23.23;40.18
12781;BME280;6454;43.304;24.344;2023-04-24T12:37:23;99660.75;;;22.93;40.47
12781;BME280;6454;43.304;24.344;2023-04-24T12:40:03;99667.78;;;22.87;42.55
12781;BME280;6454;43.304;24.344;2023-04-24T12:42:31;99658.63;;;22.76;40.04
12781;BME280;6454;43.304;24.344;2023-04-24T12:45:00;99657.13;;;22.89;40.82
12781;BME280;6454;43.304;24.344;2023-04-24T12:47:28;99653.31;;;23.00;40.45
12781;BME280;6454;43.304;24.344;2023-04-24T12:49:54;99642.75;;;23.13;41.00
12781;BME280;6454;43.304;24.344;2023-04-24T12:52:21;99635.22;;;23.14;39.72
12781;BME280;6454;43.304;24.344;2023-04-24T12:54:49;99632.91;;;23.16;39.02
12781;BME280;6454;43.304;24.344;2023-04-24T12:57:17;99616.63;;;23.07;38.82
12781;BME280;6454;43.304;24.344;2023-04-24T12:59:44;99627.22;;;23.01;38.36
12781;BME280;6454;43.304;24.344;2023-04-24T13:02:11;99628.38;;;22.93;35.36
12781;BME280;6454;43.304;24.344;2023-04-24T13:04:38;99623.19;;;22.88;37.07